createdAt,value
2019-06-20T00:00:43.573Z,28.60
2019-06-20T00:03:47.352Z,27.80
2019-06-20T00:06:51.178Z,26.83
2019-06-20T00:09:55.070Z,27.63
2019-06-20T00:13:00.715Z,28.30
2019-06-20T00:16:04.832Z,30.47
2019-06-20T00:19:08.673Z,25.67
2019-06-20T00:22:12.497Z,25.70
2019-06-20T00:25:16.318Z,26.97
2019-06-20T00:28:20.191Z,25.47
2019-06-20T00:31:24.023Z,26.07
2019-06-20T00:34:27.838Z,25.17
2019-06-20T00:37:31.670Z,24.77
2019-06-20T00:40:35.681Z,25.70
2019-06-20T00:43:39.483Z,26.33
2019-06-20T00:46:43.328Z,26.03
2019-06-20T00:49:47.293Z,21.97
2019-06-20T00:52:51.185Z,21.77
2019-06-20T00:55:55.175Z,20.00
2019-06-20T00:58:59.212Z,18.37
2019-06-20T01:02:03.042Z,19.10
2019-06-20T01:05:07.813Z,16.83
2019-06-20T01:08:11.730Z,18.33
2019-06-20T01:11:15.542Z,19.90
2019-06-20T01:14:19.420Z,16.60
2019-06-20T01:17:23.289Z,16.57
2019-06-20T01:20:27.196Z,16.27
2019-06-20T01:23:31.067Z,16.73
2019-06-20T01:26:34.955Z,15.13
2019-06-20T01:29:38.776Z,14.07
2019-06-20T01:32:42.613Z,15.10
2019-06-20T01:35:46.730Z,14.43
2019-06-20T01:38:50.625Z,16.43
2019-06-20T01:41:54.452Z,18.30
2019-06-20T01:44:58.269Z,15.83
2019-06-20T01:48:02.161Z,15.47
2019-06-20T01:51:06.186Z,17.20
2019-06-20T01:54:10.017Z,18.40
2019-06-20T01:57:13.917Z,14.40
2019-06-20T02:00:37.157Z,14.70
2019-06-20T02:03:41.095Z,13.97
2019-06-20T02:06:45.024Z,17.53
2019-06-20T02:09:48.830Z,13.73
2019-06-20T02:12:52.667Z,16.80
2019-06-20T02:15:56.621Z,12.37
2019-06-20T02:19:00.600Z,13.47
2019-06-20T02:22:04.890Z,13.57
2019-06-20T02:25:09.492Z,13.47
2019-06-20T02:28:13.384Z,13.80
2019-06-20T02:31:17.283Z,16.03
2019-06-20T02:34:21.108Z,12.40
2019-06-20T02:37:24.940Z,11.07
2019-06-20T02:40:29.032Z,14.03
2019-06-20T02:43:32.983Z,11.40
2019-06-20T02:46:36.885Z,12.67
2019-06-20T02:49:40.710Z,14.10
2019-06-20T02:52:44.746Z,14.33
2019-06-20T02:55:48.715Z,16.67
2019-06-20T02:58:52.615Z,17.93
2019-06-20T03:01:56.430Z,15.20
2019-06-20T03:05:00.327Z,16.07
2019-06-20T03:08:04.352Z,16.63
2019-06-20T03:11:08.153Z,17.87
2019-06-20T03:14:12.022Z,19.33
2019-06-20T03:17:15.932Z,16.23
2019-06-20T03:20:19.830Z,15.47
2019-06-20T03:23:23.803Z,15.17
2019-06-20T03:26:27.720Z,19.80
2019-06-20T03:29:31.685Z,17.13
2019-06-20T03:32:35.528Z,15.33
2019-06-20T03:35:39.414Z,14.00
2019-06-20T03:38:43.263Z,14.90
2019-06-20T03:41:47.078Z,13.53
2019-06-20T03:45:01.743Z,13.43
2019-06-20T03:47:56.449Z,13.10
2019-06-20T03:51:00.298Z,15.83
2019-06-20T03:54:04.264Z,14.07
2019-06-20T03:57:08.089Z,12.63
2019-06-20T04:00:12.760Z,15.43
2019-06-20T04:03:16.657Z,15.83
2019-06-20T04:06:20.494Z,14.90
2019-06-20T04:09:24.337Z,15.30
2019-06-20T04:12:28.259Z,16.10
2019-06-20T04:15:32.216Z,14.80
2019-06-20T04:18:36.068Z,14.20
2019-06-20T04:21:39.963Z,16.77
2019-06-20T04:24:43.836Z,18.47
2019-06-20T04:27:47.665Z,14.33
2019-06-20T04:30:51.478Z,17.33
2019-06-20T04:33:55.316Z,17.53
2019-06-20T04:36:59.161Z,16.77
2019-06-20T04:40:03.056Z,17.40
2019-06-20T04:43:06.892Z,20.40
2019-06-20T04:46:35.999Z,20.60
2019-06-20T04:49:39.979Z,19.90
2019-06-20T04:52:43.834Z,22.93
2019-06-20T04:55:47.713Z,23.67
2019-06-20T04:58:51.588Z,26.50
2019-06-20T05:01:55.437Z,26.87
2019-06-20T05:04:59.276Z,28.10
2019-06-20T05:08:03.254Z,26.67
2019-06-20T05:11:07.037Z,29.73
2019-06-20T05:14:10.892Z,29.10
2019-06-20T05:17:14.744Z,27.73
2019-06-20T05:20:18.683Z,29.17
2019-06-20T05:23:22.649Z,25.63
2019-06-20T05:26:26.550Z,25.73
2019-06-20T05:29:30.353Z,26.33
2019-06-20T05:32:34.252Z,26.53
2019-06-20T05:35:38.082Z,26.53
2019-06-20T05:38:41.929Z,27.03
2019-06-20T05:41:45.863Z,25.00
2019-06-20T05:44:49.675Z,28.00
2019-06-20T05:47:53.532Z,24.13
2019-06-20T05:50:57.459Z,23.57
2019-06-20T05:54:01.311Z,27.17
2019-06-20T05:57:05.306Z,23.53
2019-06-20T06:00:10.096Z,19.83
2019-06-20T06:03:13.941Z,19.37
2019-06-20T06:06:17.785Z,21.93
2019-06-20T06:09:21.636Z,21.07
2019-06-20T06:12:25.576Z,21.10
2019-06-20T06:15:29.463Z,19.50
2019-06-20T06:18:33.320Z,20.33
2019-06-20T06:21:37.195Z,18.73
2019-06-20T06:24:41.083Z,20.37
2019-06-20T06:27:45.101Z,26.87
2019-06-20T06:30:49.070Z,26.53
2019-06-20T06:33:52.909Z,26.63
2019-06-20T06:36:56.786Z,29.47
2019-06-20T06:40:00.624Z,31.63
2019-06-20T06:43:04.629Z,30.27
2019-06-20T06:46:08.540Z,25.67
2019-06-20T06:49:12.396Z,25.53
2019-06-20T06:52:16.222Z,25.60
2019-06-20T06:55:20.298Z,18.43
2019-06-20T06:58:24.124Z,20.90
2019-06-20T07:01:28.053Z,24.17
2019-06-20T07:04:31.955Z,22.67
2019-06-20T07:07:35.865Z,19.43
2019-06-20T07:10:39.776Z,22.70
2019-06-20T07:13:43.668Z,21.57
2019-06-20T07:16:59.748Z,22.77
2019-06-20T07:19:53.245Z,22.37
2019-06-20T07:22:57.090Z,19.73
2019-06-20T07:26:00.904Z,18.10
2019-06-20T07:29:05.029Z,23.47
2019-06-20T07:32:08.941Z,21.40
2019-06-20T07:35:13.216Z,27.07
2019-06-20T07:38:17.113Z,25.80
2019-06-20T07:41:21.092Z,24.00
2019-06-20T07:44:25.013Z,22.87
2019-06-20T07:47:28.895Z,21.80
2019-06-20T07:50:32.853Z,21.27
2019-06-20T07:53:36.779Z,21.83
2019-06-20T07:56:40.750Z,26.27
2019-06-20T07:59:44.641Z,23.47
2019-06-20T08:02:48.608Z,25.43
2019-06-20T08:05:52.603Z,28.17
2019-06-20T08:08:56.455Z,27.83
2019-06-20T08:12:00.242Z,25.10
2019-06-20T08:15:14.482Z,28.07
2019-06-20T08:18:10.180Z,29.13
2019-06-20T08:21:14.167Z,27.87
2019-06-20T08:24:18.151Z,30.00
2019-06-20T08:27:41.243Z,30.87
2019-06-20T08:30:45.038Z,32.87
2019-06-20T08:33:48.870Z,36.50
2019-06-20T08:36:52.768Z,38.80
2019-06-20T08:39:57.341Z,39.37
2019-06-20T08:43:02.369Z,43.87
2019-06-20T08:46:10.207Z,38.60
2019-06-20T08:49:12.413Z,41.13
2019-06-20T08:52:16.314Z,39.37
2019-06-20T08:55:20.889Z,36.53
2019-06-20T08:58:24.779Z,38.43
2019-06-20T09:01:28.653Z,35.73
2019-06-20T09:04:32.675Z,36.67
2019-06-20T09:07:36.773Z,35.77
2019-06-20T09:10:41.748Z,36.70
2019-06-20T09:13:45.840Z,38.57
2019-06-20T09:16:49.748Z,39.63
2019-06-20T09:19:54.423Z,34.93
2019-06-20T09:22:58.932Z,37.07
2019-06-20T09:26:03.888Z,33.47
2019-06-20T09:29:08.301Z,30.83
2019-06-20T09:32:12.206Z,32.23
2019-06-20T09:35:16.377Z,33.37
2019-06-20T09:38:20.479Z,28.60
2019-06-20T09:41:24.347Z,30.20
2019-06-20T09:44:28.336Z,29.23
2019-06-20T09:47:32.217Z,28.47
2019-06-20T09:50:36.186Z,32.83
2019-06-20T09:53:40.094Z,29.93
2019-06-20T09:56:47.114Z,31.73
2019-06-20T10:00:03.306Z,35.93
2019-06-20T10:02:56.257Z,29.83
2019-06-20T10:06:01.003Z,32.73
2019-06-20T10:09:07.570Z,38.60
2019-06-20T10:12:11.548Z,40.00
2019-06-20T10:15:24.166Z,34.77
2019-06-20T10:18:28.082Z,36.53
2019-06-20T10:21:32.027Z,41.77
2019-06-20T10:24:35.902Z,38.83
2019-06-20T10:27:39.878Z,36.63
2019-06-20T10:30:44.731Z,32.87
2019-06-20T10:33:48.801Z,27.87
2019-06-20T10:36:52.782Z,30.83
2019-06-20T10:39:56.894Z,30.47
2019-06-20T10:43:00.736Z,25.00
2019-06-20T10:46:04.807Z,21.73
2019-06-20T10:49:08.716Z,18.90
2019-06-20T10:52:12.979Z,21.37
2019-06-20T10:55:18.123Z,21.37
2019-06-20T10:58:21.951Z,16.37
2019-06-20T11:01:25.921Z,18.27
2019-06-20T11:04:29.763Z,20.90
2019-06-20T11:07:33.573Z,20.03
2019-06-20T11:10:38.654Z,19.10
2019-06-20T11:13:44.383Z,18.60
2019-06-20T11:16:49.298Z,17.60
2019-06-20T11:19:53.324Z,12.63
2019-06-20T11:22:57.235Z,13.63
2019-06-20T11:26:01.352Z,11.07
2019-06-20T11:29:05.442Z,14.73
2019-06-20T11:32:09.737Z,9.40
2019-06-20T11:35:13.939Z,12.10
2019-06-20T11:38:17.884Z,12.77
2019-06-20T11:41:21.702Z,9.13
2019-06-20T11:44:25.551Z,10.80
2019-06-20T11:47:29.414Z,9.30
2019-06-20T11:50:34.475Z,10.43
2019-06-20T11:53:40.577Z,11.13
2019-06-20T11:56:44.495Z,9.97
2019-06-20T11:59:48.313Z,8.87
2019-06-20T12:02:52.311Z,9.27
2019-06-20T12:05:56.299Z,12.27
2019-06-20T12:09:00.302Z,11.63
2019-06-20T12:12:04.187Z,12.63
2019-06-20T12:15:08.767Z,14.23
2019-06-20T12:18:12.658Z,11.47
2019-06-20T12:21:16.830Z,7.80
2019-06-20T12:24:21.007Z,9.20
2019-06-20T12:27:25.111Z,8.50
2019-06-20T12:30:29.170Z,7.43
2019-06-20T12:33:33.078Z,6.63
2019-06-20T12:36:39.021Z,6.10
2019-06-20T12:39:44.408Z,7.90
2019-06-20T12:42:49.337Z,7.53
2019-06-20T12:45:53.417Z,10.87
2019-06-20T12:48:57.304Z,10.30
2019-06-20T12:52:01.301Z,12.30
2019-06-20T12:55:05.719Z,9.27
2019-06-20T12:58:09.710Z,10.27
2019-06-20T13:01:13.689Z,8.67
2019-06-20T13:04:18.718Z,10.07
2019-06-20T13:07:22.829Z,10.30
2019-06-20T13:10:26.833Z,7.03
2019-06-20T13:13:30.704Z,10.30
2019-06-20T13:16:34.667Z,6.87
2019-06-20T13:19:39.187Z,7.93
2019-06-20T13:22:44.791Z,7.10
2019-06-20T13:25:48.993Z,6.40
2019-06-20T13:29:03.235Z,6.63
2019-06-20T13:32:04.308Z,7.50
2019-06-20T13:35:04.213Z,10.20
2019-06-20T13:38:08.165Z,8.53
2019-06-20T13:41:12.413Z,8.37
2019-06-20T13:44:17.538Z,8.30
2019-06-20T13:47:21.716Z,8.03
2019-06-20T13:50:26.758Z,8.43
2019-06-20T13:53:30.674Z,8.07
2019-06-20T13:56:34.515Z,9.00
2019-06-20T13:59:38.410Z,5.17
2019-06-20T14:02:43.275Z,9.17
2019-06-20T14:05:49.793Z,7.70
2019-06-20T14:08:54.588Z,9.57
2019-06-20T14:11:58.690Z,4.93
2019-06-20T14:15:02.576Z,6.17
2019-06-20T14:18:06.577Z,4.80
2019-06-20T14:21:10.584Z,5.17
2019-06-20T14:24:14.458Z,7.43
2019-06-20T14:27:18.647Z,6.50
2019-06-20T14:30:22.700Z,9.13
2019-06-20T14:33:26.830Z,5.83
2019-06-20T14:36:30.846Z,6.27
2019-06-20T14:39:35.015Z,4.83
2019-06-20T14:42:38.935Z,6.40
2019-06-20T14:45:43.818Z,6.00
2019-06-20T14:48:48.523Z,5.87
2019-06-20T14:51:52.864Z,5.53
2019-06-20T14:54:56.860Z,4.57
2019-06-20T14:58:00.677Z,6.37
2019-06-20T15:01:04.682Z,6.17
2019-06-20T15:04:08.500Z,4.80
2019-06-20T15:07:12.432Z,5.77
2019-06-20T15:10:17.136Z,5.17
2019-06-20T15:13:20.925Z,6.40
2019-06-20T15:16:24.787Z,7.30
2019-06-20T15:19:28.602Z,4.23
2019-06-20T15:22:32.600Z,6.03
2019-06-20T15:25:36.892Z,7.63
2019-06-20T15:28:40.796Z,4.57
2019-06-20T15:31:45.864Z,3.80
2019-06-20T15:34:51.586Z,3.43
2019-06-20T15:37:57.702Z,3.77
2019-06-20T15:41:01.694Z,4.77
2019-06-20T15:44:06.087Z,6.00
2019-06-20T15:47:10.082Z,3.27
2019-06-20T15:50:14.945Z,4.23
2019-06-20T15:53:18.931Z,2.90
2019-06-20T15:56:22.831Z,3.77
2019-06-20T15:59:26.864Z,2.80
2019-06-20T16:02:30.729Z,3.30
2019-06-20T16:05:35.143Z,4.43
2019-06-20T16:08:39.520Z,4.67
2019-06-20T16:11:43.426Z,5.00
2019-06-20T16:14:47.321Z,4.47
2019-06-20T16:17:51.764Z,4.60
2019-06-20T16:20:55.645Z,5.33
2019-06-20T16:23:59.531Z,4.70
2019-06-20T16:27:03.648Z,4.07
2019-06-20T16:30:08.630Z,4.50
2019-06-20T16:33:24.741Z,5.03
2019-06-20T16:36:18.280Z,5.37
2019-06-20T16:39:22.158Z,3.87
2019-06-20T16:42:26.153Z,5.20
2019-06-20T16:45:30.067Z,3.10
2019-06-20T16:48:34.223Z,5.00
2019-06-20T16:51:38.323Z,3.27
2019-06-20T16:54:42.321Z,6.40
2019-06-20T16:57:46.151Z,7.63
2019-06-20T17:00:50.118Z,5.37
2019-06-20T17:03:53.939Z,7.87
2019-06-20T17:06:57.857Z,5.53
2019-06-20T17:10:01.668Z,5.27
2019-06-20T17:13:05.738Z,7.67
2019-06-20T17:16:09.634Z,6.47
2019-06-20T17:19:13.586Z,7.67
2019-06-20T17:22:17.476Z,6.53
2019-06-20T17:25:23.584Z,6.77
2019-06-20T17:28:27.645Z,6.13
2019-06-20T17:31:31.679Z,6.53
2019-06-20T17:34:35.535Z,5.93
2019-06-20T17:37:39.606Z,7.17
2019-06-20T17:40:43.558Z,4.73
2019-06-20T17:43:47.394Z,4.00
2019-06-20T17:46:51.688Z,4.70
2019-06-20T17:49:55.519Z,7.27
2019-06-20T17:52:59.346Z,5.93
2019-06-20T17:56:03.450Z,7.03
2019-06-20T17:59:07.600Z,5.17
2019-06-20T18:02:11.507Z,3.93
2019-06-20T18:05:17.065Z,4.90
2019-06-20T18:08:21.105Z,5.53
2019-06-20T18:11:24.948Z,6.20
2019-06-20T18:14:28.748Z,4.97
2019-06-20T18:17:32.593Z,4.53
2019-06-20T18:20:36.478Z,6.83
2019-06-20T18:23:40.317Z,4.97
2019-06-20T18:26:44.209Z,6.47
2019-06-20T18:29:48.123Z,7.03
2019-06-20T18:32:52.012Z,3.97
2019-06-20T18:35:55.956Z,5.37
2019-06-20T18:38:59.870Z,4.07
2019-06-20T18:42:03.820Z,5.10
2019-06-20T18:45:08.610Z,5.87
2019-06-20T18:48:12.428Z,4.63
2019-06-20T18:51:16.247Z,3.87
2019-06-20T18:54:20.173Z,6.37
2019-06-20T18:57:24.131Z,6.60
2019-06-20T19:00:34.723Z,5.37
2019-06-20T19:03:34.310Z,5.57
2019-06-20T19:06:38.125Z,6.27
2019-06-20T19:09:41.952Z,4.53
2019-06-20T19:12:45.745Z,5.93
2019-06-20T19:15:49.823Z,7.43
2019-06-20T19:18:53.617Z,6.00
2019-06-20T19:21:57.498Z,6.10
2019-06-20T19:25:03.933Z,4.80
2019-06-20T19:28:07.006Z,6.37
2019-06-20T19:31:10.818Z,5.53
2019-06-20T19:34:14.719Z,4.10
2019-06-20T19:37:18.667Z,7.10
2019-06-20T19:40:25.522Z,6.20
2019-06-20T19:43:29.359Z,7.13
2019-06-20T19:46:33.327Z,5.73
2019-06-20T19:49:37.298Z,7.23
2019-06-20T19:52:41.318Z,4.93
2019-06-20T19:55:45.500Z,7.03
2019-06-20T19:58:49.412Z,6.03
2019-06-20T20:01:53.485Z,9.57
2019-06-20T20:04:57.466Z,7.27
2019-06-20T20:08:01.537Z,6.97
2019-06-20T20:11:05.497Z,6.60
2019-06-20T20:14:09.427Z,7.90
2019-06-20T20:17:13.297Z,5.57
2019-06-20T20:20:17.315Z,7.13
2019-06-20T20:23:21.360Z,5.97
2019-06-20T20:26:25.336Z,6.27
2019-06-20T20:29:29.268Z,6.27
2019-06-20T20:32:33.156Z,5.20
2019-06-20T20:35:37.130Z,5.63
2019-06-20T20:38:41.029Z,5.57
2019-06-20T20:41:44.928Z,6.83
2019-06-20T20:44:48.750Z,6.33
2019-06-20T20:47:52.674Z,7.23
2019-06-20T20:50:56.497Z,7.80
2019-06-20T20:54:00.670Z,4.77
2019-06-20T20:57:04.863Z,4.83
2019-06-20T21:00:11.015Z,9.23
2019-06-20T21:03:14.980Z,7.80
2019-06-20T21:06:18.915Z,6.97
2019-06-20T21:09:22.902Z,6.17
2019-06-20T21:12:26.814Z,8.17
2019-06-20T21:15:31.422Z,6.47
2019-06-20T21:18:35.242Z,4.57
2019-06-20T21:21:39.068Z,7.87
2019-06-20T21:24:42.872Z,8.97
2019-06-20T21:27:46.828Z,7.20
2019-06-20T21:30:50.632Z,4.83
2019-06-20T21:33:54.807Z,5.93
2019-06-20T21:36:58.866Z,6.30
2019-06-20T21:40:02.759Z,6.47
2019-06-20T21:43:06.633Z,8.00
2019-06-20T21:46:10.992Z,7.47
2019-06-20T21:49:15.085Z,9.33
2019-06-20T21:52:19.153Z,6.73
2019-06-20T21:55:23.219Z,10.10
2019-06-20T21:58:27.041Z,15.77
2019-06-20T22:01:30.986Z,25.90
2019-06-20T22:04:34.994Z,8.63
2019-06-20T22:07:38.901Z,8.80
2019-06-20T22:10:42.804Z,7.00
2019-06-20T22:13:49.419Z,6.07
2019-06-20T22:16:53.322Z,7.27
2019-06-20T22:19:57.326Z,8.40
2019-06-20T22:23:01.409Z,6.57
2019-06-20T22:26:05.797Z,7.77
2019-06-20T22:29:09.827Z,7.10
2019-06-20T22:32:14.022Z,6.07
2019-06-20T22:35:18.825Z,6.37
2019-06-20T22:38:22.825Z,5.10
2019-06-20T22:41:26.794Z,5.57
2019-06-20T22:44:30.835Z,5.50
2019-06-20T22:47:34.857Z,7.27
2019-06-20T22:50:38.682Z,7.53
2019-06-20T22:53:42.639Z,8.00
2019-06-20T22:56:46.680Z,10.50
2019-06-20T22:59:50.683Z,7.67
2019-06-20T23:02:55.751Z,8.93
2019-06-20T23:05:59.744Z,6.93
2019-06-20T23:09:04.252Z,8.53
2019-06-20T23:12:08.223Z,8.37
2019-06-20T23:15:13.645Z,6.97
2019-06-20T23:18:17.534Z,6.70
2019-06-20T23:21:21.529Z,10.37
2019-06-20T23:24:25.636Z,7.83
2019-06-20T23:27:29.501Z,11.00
2019-06-20T23:30:33.484Z,7.80
2019-06-20T23:33:37.568Z,7.37
2019-06-20T23:36:41.887Z,9.23
2019-06-20T23:39:45.832Z,9.53
2019-06-20T23:42:49.640Z,8.93
2019-06-20T23:45:53.761Z,8.63
2019-06-20T23:48:57.719Z,8.70
2019-06-20T23:52:07.058Z,9.60
2019-06-20T23:55:11.040Z,9.43
2019-06-20T23:58:14.872Z,9.10
